Airfield :
LOGIN :

Register | Disclaimer

   EN    FR    IT 

 










Legend :    VFR   Marginal VFR   IFR   Intensive IFR   Very Intensive IFR
Visi :
Ceiling :
>= 8 km
>= 3000ft
5 to 8 km
1000 to 3000 ft
1500m to 5 km
500 to 1000 ft
800 to 1500m
200 to 500 ft
< 800m
< 200 ft
Symbols :   Thunderstorms  Fog  Heavy snow  Heavy precipitations  Wind > 20 kt
SIGMETs :     Misc.  Thunderstorms  Icing  Turbulence  Mountain Waves  Volcanic Ashes






- Airport Elevation : 132 ft


EGXE - RAF Leeming

CURRENT METAR :
  • 220820Z AUTO 31004KT 9999 // SCT013/// BKN025/// 16/13 Q1009

EXPIRED METARs :
  • 220750Z AUTO 28002KT 9999 // OVC014/// 15/13 Q1009
  • 220720Z AUTO 30002KT 9999 +DZ OVC015/// 15/13 Q1009
  • 220650Z AUTO 22002KT 2200 RA BKN012/// BKN037/// 15/12 Q1009
  • 220620Z AUTO 19003KT 9999 SCT015/// OVC047/// 15/12 Q1009
  • 220550Z AUTO 17003KT 9999 SCT016/// OVC041/// 14/11 Q1008
  • 220520Z AUTO 14003KT 9999 SCT045/// BKN079/// 14/11 Q1008
  • 220450Z AUTO 15004KT 9999 OVC053/// 14/11 Q1008
  • 220420Z AUTO 17006KT 9999 OVC047/// 14/11 Q1008
  • 220350Z AUTO 17005KT 9999 BKN047/// SCT071/// 13/11 Q1008

Expired Forecast.



MET'MAP, your aeronautical weather chart ! - Copyright ORBIFLY December 2007 - Disclaimer

ORBIFLY MET'MAP TEAM :

Programming & Development : Alexandra Zaïnal
Original concept : Baudouin d'Aumeries
Technical & hardware support : Manuel Goepfert
Assistance : Marc-Olivier Méhu




SOURCES & CREDITS :

   NOAA